Time;durP1;ratioP1;P1;durP2;ratioP2;P2;SDS_P1;SDS_P2;PMS_P1;PMS_P2;Temp;Humidity;BMP_temperature;BMP_pressure;BME280_temperature;BME280_humidity;BME280_pressure;Samples;Min_cycle;Max_cycle;Signal;HPM_P1;HPM_P2
2022/03/10 00:02:10;;;;;;;23.00;12.93;;;;;;;;;;5011648;28;20206;-75
2022/03/10 00:04:38;;;;;;;19.87;12.97;;;;;;;;;;5012059;28;20237;-75
2022/03/10 00:07:06;;;;;;;19.43;12.47;;;;;;;;;;5011355;28;20234;-76
2022/03/10 00:09:34;;;;;;;21.73;13.13;;;;;;;;;;5012531;28;20241;-76
2022/03/10 00:12:01;;;;;;;20.47;13.43;;;;;;;;;;5012309;28;20250;-76
2022/03/10 00:14:29;;;;;;;20.57;13.00;;;;;;;;;;5012176;28;20230;-76
2022/03/10 00:16:57;;;;;;;20.07;13.83;;;;;;;;;;5014256;28;20206;-76
2022/03/10 00:19:24;;;;;;;19.73;13.57;;;;;;;;;;5015796;28;20202;-75
2022/03/10 00:21:52;;;;;;;21.17;13.73;;;;;;;;;;5016044;28;20207;-76
2022/03/10 00:24:19;;;;;;;20.30;13.93;;;;;;;;;;5016254;28;20321;-76
2022/03/10 00:26:46;;;;;;;22.60;14.63;;;;;;;;;;5015143;28;20213;-77
2022/03/10 00:29:14;;;;;;;21.50;13.47;;;;;;;;;;5011715;28;20243;-76
2022/03/10 00:31:42;;;;;;;24.17;13.93;;;;;;;;;;5015542;28;20241;-76
2022/03/10 00:34:10;;;;;;;21.30;13.73;;;;;;;;;;5008911;28;20245;-76
2022/03/10 00:36:38;;;;;;;21.87;12.93;;;;;;;;;;5009497;28;20225;-75
2022/03/10 00:39:06;;;;;;;19.30;13.40;;;;;;;;;;5009107;28;20244;-75
2022/03/10 00:41:33;;;;;;;22.40;14.20;;;;;;;;;;5008965;28;20213;-76
2022/03/10 00:44:00;;;;;;;19.90;13.07;;;;;;;;;;5009085;28;20305;-76
2022/03/10 00:46:27;;;;;;;22.13;14.03;;;;;;;;;;5015235;28;20202;-76
2022/03/10 00:48:54;;;;;;;22.63;14.27;;;;;;;;;;5014884;28;20218;-76
2022/03/10 00:51:23;;;;;;;24.53;14.23;;;;;;;;;;5015392;28;20238;-76
2022/03/10 00:53:50;;;;;;;20.87;14.00;;;;;;;;;;5014942;28;20313;-76
2022/03/10 00:56:17;;;;;;;19.97;13.83;;;;;;;;;;5014934;28;20286;-76
2022/03/10 00:58:45;;;;;;;21.43;13.53;;;;;;;;;;5015117;28;20206;-76
2022/03/10 01:01:12;;;;;;;22.10;13.73;;;;;;;;;;5015096;28;20253;-76
2022/03/10 01:03:39;;;;;;;20.20;13.90;;;;;;;;;;5015208;28;20290;-76
2022/03/10 01:06:06;;;;;;;21.40;13.67;;;;;;;;;;5015030;28;20222;-76
2022/03/10 01:08:36;;;;;;;20.77;14.53;;;;;;;;;;5014618;28;20207;-76
2022/03/10 01:11:04;;;;;;;20.07;13.70;;;;;;;;;;5015174;28;20297;-76
2022/03/10 01:13:31;;;;;;;20.67;13.30;;;;;;;;;;5014364;28;20667;-76
2022/03/10 01:15:58;;;;;;;23.43;14.53;;;;;;;;;;5014678;28;20374;-76
2022/03/10 01:18:25;;;;;;;20.47;14.33;;;;;;;;;;5013255;28;20221;-76
2022/03/10 01:20:52;;;;;;;23.63;14.17;;;;;;;;;;5015002;28;20274;-76
2022/03/10 01:23:20;;;;;;;20.07;13.43;;;;;;;;;;5014860;28;20285;-75
2022/03/10 01:25:48;;;;;;;22.50;13.33;;;;;;;;;;5014955;28;20233;-76
2022/03/10 01:28:15;;;;;;;22.60;14.87;;;;;;;;;;5012170;28;20234;-76
2022/03/10 01:30:43;;;;;;;22.87;14.47;;;;;;;;;;5012707;28;20297;-76
2022/03/10 01:33:10;;;;;;;23.37;14.20;;;;;;;;;;5014167;28;20230;-76
2022/03/10 01:35:38;;;;;;;20.30;14.63;;;;;;;;;;5014645;28;20252;-75
2022/03/10 01:38:05;;;;;;;22.37;13.83;;;;;;;;;;5013867;28;20274;-76
2022/03/10 01:40:32;;;;;;;21.53;14.47;;;;;;;;;;5014121;28;20217;-76
2022/03/10 01:43:01;;;;;;;22.20;15.27;;;;;;;;;;5014498;28;20207;-76
2022/03/10 01:45:29;;;;;;;22.33;15.00;;;;;;;;;;5014110;28;20313;-75
2022/03/10 01:47:56;;;;;;;24.03;14.47;;;;;;;;;;5011326;28;20214;-75
2022/03/10 01:50:24;;;;;;;23.43;14.57;;;;;;;;;;5014586;28;20235;-76
2022/03/10 01:52:51;;;;;;;23.20;14.57;;;;;;;;;;5014223;28;20236;-75
2022/03/10 01:55:18;;;;;;;23.63;14.60;;;;;;;;;;5013708;28;20231;-76
2022/03/10 01:57:47;;;;;;;23.67;15.07;;;;;;;;;;5013362;28;20211;-75
2022/03/10 02:00:17;;;;;;;20.37;13.57;;;;;;;;;;5013965;28;20213;-75
2022/03/10 02:02:44;;;;;;;23.43;14.67;;;;;;;;;;5014008;28;20203;-75
2022/03/10 02:05:11;;;;;;;22.70;14.63;;;;;;;;;;5013577;28;20222;-75
2022/03/10 02:10:24;;;;;;;24.20;14.07;;;;;;;;;;5013279;28;20278;-75
2022/03/10 02:12:52;;;;;;;25.23;14.23;;;;;;;;;;5013846;28;20226;-76
2022/03/10 02:18:07;;;;;;;21.33;14.17;;;;;;;;;;5012943;28;20205;-75
2022/03/10 02:20:34;;;;;;;24.33;15.10;;;;;;;;;;5013519;28;20206;-75
2022/03/10 02:23:03;;;;;;;22.47;14.37;;;;;;;;;;5014110;28;20206;-75
2022/03/10 02:25:30;;;;;;;21.67;14.50;;;;;;;;;;5013433;28;20233;-75
2022/03/10 02:27:59;;;;;;;21.97;13.47;;;;;;;;;;5013557;28;20307;-75
2022/03/10 02:30:29;;;;;;;19.77;13.37;;;;;;;;;;5013249;28;20301;-76
2022/03/10 02:32:57;;;;;;;21.17;14.70;;;;;;;;;;5013006;28;20229;-76
2022/03/10 02:35:24;;;;;;;22.77;13.93;;;;;;;;;;5013122;28;20274;-76
2022/03/10 02:37:51;;;;;;;19.17;13.43;;;;;;;;;;5012432;28;20310;-76
2022/03/10 02:40:20;;;;;;;20.53;13.87;;;;;;;;;;5013050;28;20206;-76
2022/03/10 02:42:47;;;;;;;23.77;14.20;;;;;;;;;;5012877;28;20293;-76
2022/03/10 02:45:14;;;;;;;21.70;14.73;;;;;;;;;;5012604;28;20230;-75
2022/03/10 02:47:41;;;;;;;21.27;13.63;;;;;;;;;;5011910;28;20205;-76
2022/03/10 02:50:09;;;;;;;23.77;14.77;;;;;;;;;;5012593;28;20716;-75
2022/03/10 02:52:36;;;;;;;23.03;14.27;;;;;;;;;;5013557;28;20202;-76
2022/03/10 02:55:04;;;;;;;20.87;14.83;;;;;;;;;;5013033;28;20313;-76
2022/03/10 02:57:33;;;;;;;22.27;14.13;;;;;;;;;;5012652;28;20234;-76
2022/03/10 03:00:01;;;;;;;20.77;13.30;;;;;;;;;;5013189;28;20210;-76
2022/03/10 03:02:28;;;;;;;19.93;13.33;;;;;;;;;;5013194;28;20622;-76
2022/03/10 03:04:57;;;;;;;20.17;14.00;;;;;;;;;;5013144;28;20226;-76
2022/03/10 03:07:24;;;;;;;21.40;14.43;;;;;;;;;;5006017;28;20195;-75
2022/03/10 03:09:51;;;;;;;22.97;15.13;;;;;;;;;;5006994;28;20206;-75
2022/03/10 03:12:18;;;;;;;21.50;14.20;;;;;;;;;;5006616;28;20290;-75
2022/03/10 03:14:47;;;;;;;20.73;13.70;;;;;;;;;;5012546;28;20238;-75
2022/03/10 03:17:14;;;;;;;21.57;13.87;;;;;;;;;;5012486;28;20216;-76
2022/03/10 03:19:42;;;;;;;20.37;13.97;;;;;;;;;;5013253;28;20271;-75
2022/03/10 03:22:09;;;;;;;21.47;13.90;;;;;;;;;;5012766;28;20199;-76
2022/03/10 03:24:37;;;;;;;21.53;13.90;;;;;;;;;;5012958;28;20309;-76
2022/03/10 03:27:04;;;;;;;22.93;13.23;;;;;;;;;;5011211;28;20313;-76
2022/03/10 03:29:31;;;;;;;23.73;13.90;;;;;;;;;;5008468;28;20206;-76
2022/03/10 03:32:00;;;;;;;22.47;13.93;;;;;;;;;;5012132;28;20213;-76
2022/03/10 03:34:27;;;;;;;22.93;14.17;;;;;;;;;;5010821;28;20587;-76
2022/03/10 03:36:54;;;;;;;21.43;13.97;;;;;;;;;;5010458;28;20293;-76
2022/03/10 03:39:22;;;;;;;21.50;13.93;;;;;;;;;;5011973;28;20205;-77
2022/03/10 03:41:49;;;;;;;24.13;14.70;;;;;;;;;;5012745;28;20245;-76
2022/03/10 03:44:16;;;;;;;21.33;13.97;;;;;;;;;;5012622;28;20258;-76
2022/03/10 03:46:43;;;;;;;23.50;14.27;;;;;;;;;;5012016;28;20206;-76
2022/03/10 03:49:12;;;;;;;20.87;13.60;;;;;;;;;;5012625;28;20212;-76
2022/03/10 03:51:40;;;;;;;22.17;13.30;;;;;;;;;;5015002;28;20297;-76
2022/03/10 03:54:07;;;;;;;21.23;14.27;;;;;;;;;;5016515;28;20230;-76
2022/03/10 03:56:34;;;;;;;22.13;14.00;;;;;;;;;;5016548;28;20212;-76
2022/03/10 03:59:02;;;;;;;21.03;14.03;;;;;;;;;;5016551;28;20202;-76
2022/03/10 04:01:29;;;;;;;21.73;14.60;;;;;;;;;;5016688;28;20207;-76
2022/03/10 04:03:56;;;;;;;24.13;14.67;;;;;;;;;;5016102;28;20239;-76
2022/03/10 04:06:26;;;;;;;22.53;14.90;;;;;;;;;;5016023;28;20206;-76
2022/03/10 04:08:53;;;;;;;23.23;14.93;;;;;;;;;;5015856;28;20216;-76
2022/03/10 04:11:20;;;;;;;23.20;14.47;;;;;;;;;;5016053;28;20220;-75
2022/03/10 04:13:47;;;;;;;22.80;14.07;;;;;;;;;;5015395;28;20242;-75
2022/03/10 04:16:15;;;;;;;22.40;14.77;;;;;;;;;;5015465;28;20222;-75
2022/03/10 04:18:42;;;;;;;21.63;15.10;;;;;;;;;;5015199;28;20218;-76
2022/03/10 04:21:09;;;;;;;22.33;13.93;;;;;;;;;;5015704;28;20207;-76
2022/03/10 04:23:38;;;;;;;25.90;15.03;;;;;;;;;;5015376;28;20206;-75
2022/03/10 04:26:05;;;;;;;26.77;15.30;;;;;;;;;;5016066;28;20230;-77
2022/03/10 04:28:33;;;;;;;22.27;14.60;;;;;;;;;;5015186;28;20210;-75
2022/03/10 04:31:00;;;;;;;23.63;14.00;;;;;;;;;;5015586;28;20210;-77
2022/03/10 04:33:27;;;;;;;22.93;14.00;;;;;;;;;;5015137;28;20224;-76
2022/03/10 04:35:56;;;;;;;26.97;15.40;;;;;;;;;;5015421;28;20260;-76
2022/03/10 04:38:24;;;;;;;28.73;17.40;;;;;;;;;;5015149;28;20206;-76
2022/03/10 04:40:52;;;;;;;23.53;14.97;;;;;;;;;;5015049;28;20301;-76
2022/03/10 04:43:20;;;;;;;22.30;14.33;;;;;;;;;;5015407;28;20274;-76
2022/03/10 04:45:47;;;;;;;21.90;13.97;;;;;;;;;;5014919;28;20321;-76
2022/03/10 04:48:14;;;;;;;22.80;14.83;;;;;;;;;;5014611;28;20313;-76
2022/03/10 04:50:41;;;;;;;19.83;14.10;;;;;;;;;;5015111;28;20293;-76
2022/03/10 04:53:09;;;;;;;25.43;14.97;;;;;;;;;;5015012;28;20233;-76
2022/03/10 04:55:36;;;;;;;23.47;15.00;;;;;;;;;;5014608;28;20431;-76
2022/03/10 04:58:05;;;;;;;23.90;14.17;;;;;;;;;;5013914;28;20214;-76
2022/03/10 05:00:33;;;;;;;21.20;14.50;;;;;;;;;;5015086;28;20206;-77
2022/03/10 05:03:00;;;;;;;22.10;13.43;;;;;;;;;;5014524;28;20210;-75
2022/03/10 05:05:28;;;;;;;21.80;13.23;;;;;;;;;;5014460;28;20337;-74
2022/03/10 05:07:56;;;;;;;22.63;13.67;;;;;;;;;;5014552;28;20633;-77
2022/03/10 05:10:23;;;;;;;21.83;13.70;;;;;;;;;;5014628;28;20293;-76
2022/03/10 05:12:52;;;;;;;22.23;13.67;;;;;;;;;;5014842;28;20207;-76
2022/03/10 05:15:21;;;;;;;19.83;13.60;;;;;;;;;;5014718;28;20237;-76
2022/03/10 05:17:48;;;;;;;23.43;14.70;;;;;;;;;;5013848;28;20206;-76
2022/03/10 05:20:16;;;;;;;24.20;15.53;;;;;;;;;;5014880;28;20210;-76
2022/03/10 05:22:45;;;;;;;24.13;14.23;;;;;;;;;;5015157;28;20212;-76
2022/03/10 05:25:13;;;;;;;26.33;15.27;;;;;;;;;;5014864;28;20227;-76
2022/03/10 05:27:40;;;;;;;20.10;13.87;;;;;;;;;;5014097;28;20230;-76
2022/03/10 05:30:08;;;;;;;20.30;13.83;;;;;;;;;;5014975;28;20206;-76
2022/03/10 05:32:37;;;;;;;21.87;14.07;;;;;;;;;;5013546;28;20289;-76
2022/03/10 05:35:04;;;;;;;24.37;14.97;;;;;;;;;;5013074;28;20257;-77
2022/03/10 05:37:32;;;;;;;26.20;15.33;;;;;;;;;;5012902;28;20209;-76
2022/03/10 05:39:59;;;;;;;23.87;15.57;;;;;;;;;;5005229;28;20290;-76
2022/03/10 05:42:26;;;;;;;30.50;15.20;;;;;;;;;;5014429;28;20199;-77
2022/03/10 05:44:54;;;;;;;26.30;16.37;;;;;;;;;;5013767;28;20242;-77
2022/03/10 05:47:21;;;;;;;27.13;15.57;;;;;;;;;;5010087;28;20262;-77
2022/03/10 05:49:50;;;;;;;23.90;15.40;;;;;;;;;;5013447;28;20289;-77
2022/03/10 05:52:17;;;;;;;26.27;15.37;;;;;;;;;;5013214;28;20213;-77
2022/03/10 05:54:44;;;;;;;25.00;14.97;;;;;;;;;;5010655;28;20622;-77
2022/03/10 05:57:11;;;;;;;23.87;14.67;;;;;;;;;;5012458;28;20277;-77
2022/03/10 05:59:39;;;;;;;21.93;14.67;;;;;;;;;;5013567;28;20214;-77
2022/03/10 06:02:06;;;;;;;22.70;14.10;;;;;;;;;;5013208;28;20306;-76
2022/03/10 06:04:33;;;;;;;24.67;14.00;;;;;;;;;;5012936;28;20219;-77
2022/03/10 06:07:02;;;;;;;27.27;15.30;;;;;;;;;;5010825;28;20203;-77
2022/03/10 06:09:29;;;;;;;28.53;14.77;;;;;;;;;;5012814;28;20229;-77
2022/03/10 06:11:57;;;;;;;21.47;14.70;;;;;;;;;;5012674;28;20207;-77
2022/03/10 06:14:24;;;;;;;29.43;15.30;;;;;;;;;;5011774;28;20276;-77
2022/03/10 06:16:51;;;;;;;21.87;14.90;;;;;;;;;;5009221;28;20203;-76
2022/03/10 06:19:19;;;;;;;26.83;16.47;;;;;;;;;;5012947;28;20203;-76
2022/03/10 06:21:46;;;;;;;27.80;16.10;;;;;;;;;;5014183;28;20230;-78
2022/03/10 06:24:15;;;;;;;30.20;15.63;;;;;;;;;;5013817;28;20310;-76
2022/03/10 06:26:42;;;;;;;23.77;15.53;;;;;;;;;;5012250;28;20285;-76
2022/03/10 06:29:10;;;;;;;29.97;16.00;;;;;;;;;;5032157;28;20232;-77
2022/03/10 06:31:37;;;;;;;25.17;15.87;;;;;;;;;;5022344;28;20264;-77
2022/03/10 06:34:04;;;;;;;23.80;15.17;;;;;;;;;;5014179;28;20230;-76
2022/03/10 06:36:31;;;;;;;29.63;16.27;;;;;;;;;;5012761;28;20246;-76
2022/03/10 06:39:02;;;;;;;27.33;17.17;;;;;;;;;;5012630;28;20305;-76
2022/03/10 06:41:30;;;;;;;27.97;16.50;;;;;;;;;;5008633;28;20195;-77
2022/03/10 06:43:59;;;;;;;24.73;15.57;;;;;;;;;;5009898;28;20231;-77
2022/03/10 06:46:26;;;;;;;25.27;15.50;;;;;;;;;;5012261;28;20257;-77
2022/03/10 06:48:56;;;;;;;29.27;15.10;;;;;;;;;;5011655;28;20294;-78
2022/03/10 06:51:24;;;;;;;30.13;15.87;;;;;;;;;;5006295;28;20278;-78
2022/03/10 06:53:51;;;;;;;23.73;14.57;;;;;;;;;;5012748;28;20249;-77
2022/03/10 06:56:18;;;;;;;29.57;16.10;;;;;;;;;;5011155;28;20661;-78
2022/03/10 06:58:47;;;;;;;23.13;15.73;;;;;;;;;;5007569;28;20253;-78
2022/03/10 07:01:15;;;;;;;25.80;15.83;;;;;;;;;;5011085;28;20250;-78
2022/03/10 07:03:42;;;;;;;27.30;17.57;;;;;;;;;;5011627;28;20199;-78
2022/03/10 07:06:09;;;;;;;27.60;16.33;;;;;;;;;;5012996;28;20297;-78
2022/03/10 07:08:37;;;;;;;32.87;16.83;;;;;;;;;;5012335;28;20281;-78
2022/03/10 07:11:04;;;;;;;25.27;16.07;;;;;;;;;;5012844;28;20281;-78
2022/03/10 07:13:34;;;;;;;24.93;16.17;;;;;;;;;;5013079;28;20202;-78
2022/03/10 07:16:05;;;;;;;23.57;14.90;;;;;;;;;;5012700;28;20696;-78
2022/03/10 07:18:32;;;;;;;28.17;15.63;;;;;;;;;;5004828;28;20198;-79
2022/03/10 07:20:59;;;;;;;29.93;16.00;;;;;;;;;;5013541;28;20233;-79
2022/03/10 07:23:26;;;;;;;24.83;15.97;;;;;;;;;;5014572;28;20238;-79
2022/03/10 07:25:54;;;;;;;37.37;18.87;;;;;;;;;;5012590;28;20285;-79
2022/03/10 07:28:21;;;;;;;32.93;18.33;;;;;;;;;;5013753;28;20229;-79
2022/03/10 07:30:48;;;;;;;29.63;18.17;;;;;;;;;;5013354;28;20210;-79
2022/03/10 07:33:18;;;;;;;26.80;16.67;;;;;;;;;;5012293;28;20270;-77
2022/03/10 07:35:46;;;;;;;25.50;16.63;;;;;;;;;;5010994;28;20254;-78
2022/03/10 07:38:13;;;;;;;30.27;18.87;;;;;;;;;;5010533;28;20273;-77
2022/03/10 07:40:40;;;;;;;25.53;16.53;;;;;;;;;;5011230;28;20214;-77
2022/03/10 07:43:11;;;;;;;28.13;17.63;;;;;;;;;;5015083;28;20203;-75
2022/03/10 07:45:38;;;;;;;26.10;17.37;;;;;;;;;;5010414;28;20253;-77
2022/03/10 07:48:08;;;;;;;26.93;17.67;;;;;;;;;;5010673;28;20237;-75
2022/03/10 07:50:37;;;;;;;28.07;16.83;;;;;;;;;;5004801;28;20297;-75
2022/03/10 07:53:07;;;;;;;28.67;17.50;;;;;;;;;;5005743;28;20227;-75
2022/03/10 07:55:34;;;;;;;25.30;17.53;;;;;;;;;;5005713;28;20321;-75
2022/03/10 07:58:02;;;;;;;26.70;17.00;;;;;;;;;;5006271;28;20209;-75
2022/03/10 08:00:31;;;;;;;24.60;16.30;;;;;;;;;;5012444;28;20203;-74
2022/03/10 08:02:58;;;;;;;26.03;16.93;;;;;;;;;;5010872;28;20293;-75
2022/03/10 08:05:25;;;;;;;22.63;16.27;;;;;;;;;;5010895;28;20227;-74
2022/03/10 08:07:59;;;;;;;25.73;16.73;;;;;;;;;;5011426;28;20241;-75
2022/03/10 08:10:26;;;;;;;24.43;17.23;;;;;;;;;;5011473;28;20225;-74
2022/03/10 08:12:54;;;;;;;26.63;16.03;;;;;;;;;;5012992;28;20213;-82
2022/03/10 08:15:22;;;;;;;23.77;16.17;;;;;;;;;;5012738;28;20313;-80
2022/03/10 08:17:49;;;;;;;22.93;15.57;;;;;;;;;;5007895;28;20273;-75
2022/03/10 08:20:18;;;;;;;22.40;15.83;;;;;;;;;;5010091;28;20222;-75
2022/03/10 08:22:45;;;;;;;22.23;15.83;;;;;;;;;;5007675;28;20257;-75
2022/03/10 08:25:14;;;;;;;22.53;15.67;;;;;;;;;;5007092;28;20273;-75
2022/03/10 08:27:41;;;;;;;21.53;15.37;;;;;;;;;;5010417;28;20214;-75
2022/03/10 08:30:13;;;;;;;20.13;14.00;;;;;;;;;;5011304;28;20230;-77
2022/03/10 08:32:40;;;;;;;20.47;14.80;;;;;;;;;;5009439;28;20207;-77
2022/03/10 08:35:11;;;;;;;18.47;12.43;;;;;;;;;;5011849;28;20313;-75
2022/03/10 08:37:38;;;;;;;21.83;13.73;;;;;;;;;;5014255;28;20234;-76
2022/03/10 08:40:06;;;;;;;19.80;13.60;;;;;;;;;;5014436;28;20265;-75
2022/03/10 08:42:37;;;;;;;16.67;12.07;;;;;;;;;;5012896;28;20234;-75
2022/03/10 08:45:07;;;;;;;21.47;13.67;;;;;;;;;;5009137;28;20305;-75
2022/03/10 08:47:34;;;;;;;19.43;13.40;;;;;;;;;;5011815;28;20199;-74
2022/03/10 08:50:02;;;;;;;16.33;13.03;;;;;;;;;;5012058;28;20233;-75
2022/03/10 08:52:29;;;;;;;15.83;11.93;;;;;;;;;;5009219;28;20202;-74
2022/03/10 08:54:56;;;;;;;17.77;12.50;;;;;;;;;;5012103;28;20218;-74
2022/03/10 08:57:23;;;;;;;21.57;14.13;;;;;;;;;;5012102;28;20207;-74
2022/03/10 08:59:52;;;;;;;18.87;12.57;;;;;;;;;;5011213;28;20229;-75
2022/03/10 09:02:19;;;;;;;30.70;13.17;;;;;;;;;;5012567;28;20230;-76
2022/03/10 09:04:46;;;;;;;14.60;12.50;;;;;;;;;;5014619;28;20233;-76
2022/03/10 09:07:14;;;;;;;17.83;12.30;;;;;;;;;;5012928;28;20302;-76
2022/03/10 09:09:41;;;;;;;16.27;11.57;;;;;;;;;;5014142;28;20233;-76
2022/03/10 09:12:09;;;;;;;18.20;11.87;;;;;;;;;;5013971;28;20301;-75
2022/03/10 09:14:40;;;;;;;15.07;11.20;;;;;;;;;;5014025;28;20794;-76
2022/03/10 09:17:09;;;;;;;16.87;10.73;;;;;;;;;;5013581;28;20260;-76
2022/03/10 09:19:43;;;;;;;15.43;11.27;;;;;;;;;;5010419;28;20302;-76
2022/03/10 09:22:11;;;;;;;15.40;11.50;;;;;;;;;;5013505;28;20210;-75
2022/03/10 09:24:38;;;;;;;12.93;10.50;;;;;;;;;;5013516;28;20230;-76
2022/03/10 09:27:07;;;;;;;13.30;11.10;;;;;;;;;;5009881;28;20301;-76
2022/03/10 09:29:35;;;;;;;15.40;11.40;;;;;;;;;;5010835;28;20198;-76
2022/03/10 09:32:03;;;;;;;15.23;10.93;;;;;;;;;;5011555;28;20209;-76
2022/03/10 09:34:31;;;;;;;15.03;11.60;;;;;;;;;;5013237;28;20246;-76
2022/03/10 09:36:59;;;;;;;13.40;11.03;;;;;;;;;;5012585;28;20273;-76
2022/03/10 09:39:26;;;;;;;14.33;11.00;;;;;;;;;;5012532;28;20213;-76
2022/03/10 09:41:54;;;;;;;14.07;10.57;;;;;;;;;;5013518;28;20209;-76
2022/03/10 09:44:22;;;;;;;13.67;11.03;;;;;;;;;;5013333;28;20237;-76
2022/03/10 09:46:52;;;;;;;13.50;11.27;;;;;;;;;;5012750;28;20210;-76
2022/03/10 09:49:26;;;;;;;13.90;10.63;;;;;;;;;;5012031;28;20245;-76
2022/03/10 09:51:54;;;;;;;12.40;10.80;;;;;;;;;;5013262;28;20225;-76
2022/03/10 09:54:22;;;;;;;14.77;11.33;;;;;;;;;;5013471;28;20318;-76
2022/03/10 09:56:49;;;;;;;18.80;11.07;;;;;;;;;;5012224;28;20234;-76
2022/03/10 09:59:17;;;;;;;10.73;9.40;;;;;;;;;;5013392;28;20210;-76
2022/03/10 10:01:46;;;;;;;13.73;9.63;;;;;;;;;;5012975;28;20206;-76
2022/03/10 10:04:16;;;;;;;13.43;9.20;;;;;;;;;;5013546;28;20246;-76
2022/03/10 10:07:07;;;;;;;11.33;9.00;;;;;;;;;;5012345;28;20691;-76
2022/03/10 10:09:41;;;;;;;11.30;9.00;;;;;;;;;;5013591;28;20218;-76
2022/03/10 10:12:22;;;;;;;11.60;8.47;;;;;;;;;;5012390;28;20202;-77
2022/03/10 10:14:50;;;;;;;11.67;8.40;;;;;;;;;;5011173;28;20222;-76
2022/03/10 10:17:18;;;;;;;12.60;9.47;;;;;;;;;;5012769;28;20202;-76
2022/03/10 10:19:45;;;;;;;9.50;8.50;;;;;;;;;;5012699;28;20677;-76
2022/03/10 10:22:19;;;;;;;9.00;7.63;;;;;;;;;;5012549;28;20211;-76
2022/03/10 10:24:50;;;;;;;9.63;7.77;;;;;;;;;;5013087;28;20226;-76
2022/03/10 10:27:18;;;;;;;9.83;7.93;;;;;;;;;;5012407;28;20207;-76
2022/03/10 10:29:49;;;;;;;11.43;8.47;;;;;;;;;;5012898;28;20218;-76
2022/03/10 10:32:25;;;;;;;10.83;8.30;;;;;;;;;;5011480;28;20210;-76
2022/03/10 10:35:02;;;;;;;8.67;7.70;;;;;;;;;;5012048;28;20226;-76
2022/03/10 10:37:30;;;;;;;11.57;8.33;;;;;;;;;;5007102;28;20206;-76
2022/03/10 10:39:58;;;;;;;9.07;7.83;;;;;;;;;;5013337;28;20276;-76
2022/03/10 10:42:32;;;;;;;9.43;7.90;;;;;;;;;;5012573;28;20665;-75
2022/03/10 10:45:00;;;;;;;10.13;7.97;;;;;;;;;;5011820;28;20220;-76
2022/03/10 10:47:27;;;;;;;10.60;7.93;;;;;;;;;;5008241;28;20281;-75
2022/03/10 10:50:04;;;;;;;9.13;7.70;;;;;;;;;;5011569;28;20202;-76
2022/03/10 10:52:42;;;;;;;10.47;7.60;;;;;;;;;;5012124;28;20218;-76
2022/03/10 10:55:17;;;;;;;10.73;7.73;;;;;;;;;;5011190;28;20305;-76
2022/03/10 10:57:45;;;;;;;7.83;6.90;;;;;;;;;;5011212;28;20208;-75
2022/03/10 11:00:13;;;;;;;10.13;7.93;;;;;;;;;;5012134;28;20293;-76
2022/03/10 11:02:44;;;;;;;10.37;8.40;;;;;;;;;;5011921;28;20265;-76
2022/03/10 11:05:14;;;;;;;7.83;6.77;;;;;;;;;;5012330;28;20229;-76
2022/03/10 11:07:47;;;;;;;7.97;7.17;;;;;;;;;;5012476;28;20203;-81
2022/03/10 11:10:14;;;;;;;7.43;6.30;;;;;;;;;;5014793;28;20203;-75
2022/03/10 11:12:41;;;;;;;8.10;6.90;;;;;;;;;;5002584;28;20237;-76
2022/03/10 11:15:16;;;;;;;7.03;6.33;;;;;;;;;;5004755;28;20226;-76
2022/03/10 11:17:46;;;;;;;7.87;6.93;;;;;;;;;;5005332;28;20668;-75
2022/03/10 11:20:19;;;;;;;9.27;7.07;;;;;;;;;;5011370;28;20297;-75
2022/03/10 11:22:55;;;;;;;8.10;6.37;;;;;;;;;;5011364;28;20203;-75
2022/03/10 11:25:37;;;;;;;10.03;6.70;;;;;;;;;;5011191;28;20218;-75
2022/03/10 11:28:07;;;;;;;8.00;6.67;;;;;;;;;;5006546;28;20221;-74
2022/03/10 11:30:35;;;;;;;5.57;5.00;;;;;;;;;;5009796;28;20234;-75
2022/03/10 11:33:03;;;;;;;6.10;5.17;;;;;;;;;;5011100;28;20249;-74
2022/03/10 11:35:35;;;;;;;5.87;5.27;;;;;;;;;;5009133;28;20234;-74
2022/03/10 11:38:04;;;;;;;6.60;5.87;;;;;;;;;;5008939;28;20210;-80
2022/03/10 11:40:57;;;;;;;6.63;5.03;;;;;;;;;;5010739;28;20202;-74
2022/03/10 11:43:30;;;;;;;7.10;4.20;;;;;;;;;;5010872;28;20210;-74
2022/03/10 11:46:19;;;;;;;5.40;4.13;;;;;;;;;;5008243;28;20226;-74
2022/03/10 11:49:00;;;;;;;3.63;3.30;;;;;;;;;;5012263;28;20209;-74
2022/03/10 11:51:41;;;;;;;4.40;3.80;;;;;;;;;;5010638;28;20203;-74
2022/03/10 11:54:11;;;;;;;4.07;3.70;;;;;;;;;;5005873;28;20217;-74
2022/03/10 11:57:06;;;;;;;4.30;3.20;;;;;;;;;;5008617;28;20227;-77
2022/03/10 11:59:49;;;;;;;4.20;3.47;;;;;;;;;;5008201;28;20210;-78
2022/03/10 12:02:37;;;;;;;5.43;4.03;;;;;;;;;;5008678;28;20677;-77
2022/03/10 12:05:08;;;;;;;5.43;3.67;;;;;;;;;;5012915;28;20286;-80
2022/03/10 12:07:38;;;;;;;4.27;3.63;;;;;;;;;;5011927;28;20215;-79
2022/03/10 12:12:52;;;;;;;5.43;3.50;;;;;;;;;;5011976;28;20246;-84
2022/03/10 12:15:55;;;;;;;5.57;3.20;;;;;;;;;;5013500;28;20229;-81
2022/03/10 12:18:24;;;;;;;3.67;3.20;;;;;;;;;;5012066;28;20206;-76
2022/03/10 12:21:07;;;;;;;3.37;3.07;;;;;;;;;;5001379;28;20206;-79
2022/03/10 12:23:34;;;;;;;3.10;2.70;;;;;;;;;;5017471;28;20280;-75
2022/03/10 12:26:10;;;;;;;4.93;3.17;;;;;;;;;;5012752;28;20406;-76
2022/03/10 12:28:39;;;;;;;3.70;3.30;;;;;;;;;;5008261;28;20293;-76
2022/03/10 12:31:21;;;;;;;3.87;2.83;;;;;;;;;;5014787;28;20203;-76
2022/03/10 12:33:53;;;;;;;3.57;3.23;;;;;;;;;;5013800;28;20234;-77
2022/03/10 12:36:27;;;;;;;4.27;3.10;;;;;;;;;;5014058;28;20222;-76
2022/03/10 12:38:54;;;;;;;3.40;3.10;;;;;;;;;;5017049;28;20210;-79
2022/03/10 12:41:27;;;;;;;5.70;3.27;;;;;;;;;;5018841;28;20230;-79
2022/03/10 12:43:55;;;;;;;4.03;3.60;;;;;;;;;;5015778;28;20202;-77
2022/03/10 12:46:25;;;;;;;4.40;3.40;;;;;;;;;;5014849;28;20202;-78
2022/03/10 12:48:59;;;;;;;6.17;3.90;;;;;;;;;;5014315;28;20202;-78
2022/03/10 12:51:28;;;;;;;3.80;3.40;;;;;;;;;;5017221;28;20209;-80
2022/03/10 12:53:59;;;;;;;4.10;3.70;;;;;;;;;;5023759;28;20198;-80
2022/03/10 12:56:42;;;;;;;4.77;3.80;;;;;;;;;;5025672;28;20218;-80
2022/03/10 12:59:18;;;;;;;6.60;4.57;;;;;;;;;;5017966;28;20294;-78
2022/03/10 13:01:50;;;;;;;4.27;3.70;;;;;;;;;;5013522;28;20241;-78
2022/03/10 13:04:29;;;;;;;4.60;3.90;;;;;;;;;;5013630;28;20313;-78
2022/03/10 13:07:08;;;;;;;6.00;3.83;;;;;;;;;;5012905;28;20218;-78
2022/03/10 13:09:41;;;;;;;4.33;3.93;;;;;;;;;;5013004;28;20754;-77
2022/03/10 13:12:17;;;;;;;4.10;3.70;;;;;;;;;;5014172;28;20221;-78
2022/03/10 13:14:55;;;;;;;5.23;3.83;;;;;;;;;;5009138;28;20305;-78
2022/03/10 13:17:36;;;;;;;4.37;3.97;;;;;;;;;;5014174;28;20687;-80
2022/03/10 13:20:17;;;;;;;4.65;4.07;;;;;;;;;;5008318;28;20206;-78
2022/03/10 13:22:55;;;;;;;5.33;4.07;;;;;;;;;;5009576;28;20309;-78
2022/03/10 13:25:26;;;;;;;4.93;4.43;;;;;;;;;;5013813;28;20222;-78
2022/03/10 13:28:00;;;;;;;7.97;5.47;;;;;;;;;;5008765;28;20208;-78
2022/03/10 13:30:36;;;;;;;5.43;4.23;;;;;;;;;;5005972;28;20205;-77
2022/03/10 13:33:09;;;;;;;4.77;4.33;;;;;;;;;;5015172;28;20292;-78
2022/03/10 13:35:37;;;;;;;4.63;4.10;;;;;;;;;;5006674;28;20325;-77
2022/03/10 13:38:08;;;;;;;4.60;4.20;;;;;;;;;;5008695;28;20238;-78
2022/03/10 13:40:42;;;;;;;4.70;4.20;;;;;;;;;;5014068;28;20205;-78
2022/03/10 13:43:38;;;;;;;5.30;4.77;;;;;;;;;;5008322;28;20232;-77
2022/03/10 13:46:16;;;;;;;4.93;4.32;;;;;;;;;;5011833;28;20223;-77
2022/03/10 13:49:04;;;;;;;4.35;3.95;;;;;;;;;;5012791;28;20230;-78
2022/03/10 13:51:38;;;;;;;5.68;4.93;;;;;;;;;;5011516;28;20306;-77
2022/03/10 13:54:07;;;;;;;4.27;3.70;;;;;;;;;;5012620;28;20261;-78
2022/03/10 13:56:39;;;;;;;6.73;4.50;;;;;;;;;;5012472;28;20237;-78
2022/03/10 13:59:11;;;;;;;5.30;4.10;;;;;;;;;;5011280;28;20223;-78
2022/03/10 14:01:39;;;;;;;4.93;4.20;;;;;;;;;;5012332;28;20208;-78
2022/03/10 14:04:19;;;;;;;4.53;4.13;;;;;;;;;;5012030;28;20249;-78
2022/03/10 14:06:54;;;;;;;4.17;3.77;;;;;;;;;;5011848;28;20207;-78
2022/03/10 14:19:02;;;;;;;4.95;3.85;;;;;;;;;;4830861;29;20243;-77
2022/03/10 14:21:32;;;;;;;5.90;4.43;;;;;;;;;;4828575;29;20197;-74
2022/03/10 14:24:03;;;;;;;4.93;4.10;;;;;;;;;;4821257;29;20205;-75
2022/03/10 14:26:41;;;;;;;5.97;4.95;;;;;;;;;;4825652;29;20244;-77
2022/03/10 14:29:09;;;;;;;6.37;5.17;;;;;;;;;;4827861;29;20585;-76
2022/03/10 14:31:41;;;;;;;4.57;4.03;;;;;;;;;;4821704;29;20217;-76
2022/03/10 14:34:16;;;;;;;4.90;4.40;;;;;;;;;;4820751;29;20216;-77
2022/03/10 14:36:48;;;;;;;7.13;4.55;;;;;;;;;;4826970;29;20320;-74
2022/03/10 14:39:18;;;;;;;5.22;4.65;;;;;;;;;;4836157;29;20208;-76
2022/03/10 14:41:46;;;;;;;5.47;4.47;;;;;;;;;;4834987;29;20217;-74
2022/03/10 14:44:14;;;;;;;6.15;4.97;;;;;;;;;;4835753;29;20312;-77
2022/03/10 14:46:44;;;;;;;5.15;4.50;;;;;;;;;;4835774;29;20215;-76
2022/03/10 14:49:14;;;;;;;5.30;4.80;;;;;;;;;;4821314;29;20301;-73
2022/03/10 14:51:43;;;;;;;5.22;4.72;;;;;;;;;;4846629;29;20657;-74
2022/03/10 14:54:13;;;;;;;5.03;4.38;;;;;;;;;;4941379;29;20304;-74
2022/03/10 14:56:43;;;;;;;4.90;4.40;;;;;;;;;;5005450;28;20656;-74